sensor_id;sensor_type;location;lat;lon;timestamp;temperature;humidity
13203;DHT22;6666;51.626;7.530;2022-11-20T00:01:15;-2.30;99.90
13203;DHT22;6666;51.626;7.530;2022-11-20T00:03:45;-2.30;99.90
13203;DHT22;6666;51.626;7.530;2022-11-20T00:06:15;-2.30;99.90
13203;DHT22;6666;51.626;7.530;2022-11-20T00:08:44;-2.40;99.90
13203;DHT22;6666;51.626;7.530;2022-11-20T00:11:14;-2.50;99.90
13203;DHT22;6666;51.626;7.530;2022-11-20T00:13:43;-2.50;99.90
13203;DHT22;6666;51.626;7.530;2022-11-20T00:16:13;-2.50;99.90
13203;DHT22;6666;51.626;7.530;2022-11-20T00:18:43;-2.40;99.90
13203;DHT22;6666;51.626;7.530;2022-11-20T00:21:13;-2.40;99.90
13203;DHT22;6666;51.626;7.530;2022-11-20T00:23:42;-2.50;99.90
13203;DHT22;6666;51.626;7.530;2022-11-20T00:26:13;-2.50;99.90
13203;DHT22;6666;51.626;7.530;2022-11-20T00:28:44;-2.50;99.90
13203;DHT22;6666;51.626;7.530;2022-11-20T00:31:17;-2.50;99.90
13203;DHT22;6666;51.626;7.530;2022-11-20T00:33:47;-2.50;99.90
13203;DHT22;6666;51.626;7.530;2022-11-20T00:36:17;-2.40;99.90
13203;DHT22;6666;51.626;7.530;2022-11-20T00:38:45;-2.50;99.90
13203;DHT22;6666;51.626;7.530;2022-11-20T00:41:15;-2.50;99.90
13203;DHT22;6666;51.626;7.530;2022-11-20T00:43:44;-2.60;99.90
13203;DHT22;6666;51.626;7.530;2022-11-20T00:46:14;-2.60;99.90
13203;DHT22;6666;51.626;7.530;2022-11-20T00:48:42;-2.50;99.90
13203;DHT22;6666;51.626;7.530;2022-11-20T00:51:13;-2.50;99.90
13203;DHT22;6666;51.626;7.530;2022-11-20T00:53:42;-2.60;99.90
13203;DHT22;6666;51.626;7.530;2022-11-20T00:56:13;-2.60;99.90
13203;DHT22;6666;51.626;7.530;2022-11-20T00:58:43;-2.60;99.90
13203;DHT22;6666;51.626;7.530;2022-11-20T01:01:13;-2.70;99.90
13203;DHT22;6666;51.626;7.530;2022-11-20T01:03:43;-2.70;99.90
13203;DHT22;6666;51.626;7.530;2022-11-20T01:06:16;-2.60;99.90
13203;DHT22;6666;51.626;7.530;2022-11-20T01:08:44;-2.70;99.90
13203;DHT22;6666;51.626;7.530;2022-11-20T01:11:15;-2.60;99.90
13203;DHT22;6666;51.626;7.530;2022-11-20T01:13:44;-2.50;99.90
13203;DHT22;6666;51.626;7.530;2022-11-20T01:16:14;-2.40;99.90
13203;DHT22;6666;51.626;7.530;2022-11-20T01:18:43;-2.30;99.90
13203;DHT22;6666;51.626;7.530;2022-11-20T01:21:15;-2.20;99.90
13203;DHT22;6666;51.626;7.530;2022-11-20T01:23:44;-2.20;99.90
13203;DHT22;6666;51.626;7.530;2022-11-20T01:26:13;-2.10;99.90
13203;DHT22;6666;51.626;7.530;2022-11-20T01:28:43;-2.00;99.90
13203;DHT22;6666;51.626;7.530;2022-11-20T01:31:13;-2.00;99.90
13203;DHT22;6666;51.626;7.530;2022-11-20T01:33:42;-2.00;99.90
13203;DHT22;6666;51.626;7.530;2022-11-20T01:36:13;-1.90;99.90
13203;DHT22;6666;51.626;7.530;2022-11-20T01:38:42;-1.90;99.90
13203;DHT22;6666;51.626;7.530;2022-11-20T01:41:11;-1.90;99.90
13203;DHT22;6666;51.626;7.530;2022-11-20T01:44:00;-1.90;99.90
13203;DHT22;6666;51.626;7.530;2022-11-20T01:46:28;-1.80;99.90
13203;DHT22;6666;51.626;7.530;2022-11-20T01:48:59;-1.80;99.90
13203;DHT22;6666;51.626;7.530;2022-11-20T01:51:33;-1.70;99.90
13203;DHT22;6666;51.626;7.530;2022-11-20T01:54:05;-1.70;99.90
13203;DHT22;6666;51.626;7.530;2022-11-20T01:56:38;-1.70;99.90
13203;DHT22;6666;51.626;7.530;2022-11-20T01:59:10;-1.70;99.90
13203;DHT22;6666;51.626;7.530;2022-11-20T02:01:41;-1.60;99.90
13203;DHT22;6666;51.626;7.530;2022-11-20T02:04:10;-1.70;99.90
13203;DHT22;6666;51.626;7.530;2022-11-20T02:06:42;-1.70;99.90
13203;DHT22;6666;51.626;7.530;2022-11-20T02:09:12;-1.70;99.90
13203;DHT22;6666;51.626;7.530;2022-11-20T02:11:41;-1.80;99.90
13203;DHT22;6666;51.626;7.530;2022-11-20T02:14:10;-1.80;99.90
13203;DHT22;6666;51.626;7.530;2022-11-20T02:16:40;-1.80;99.90
13203;DHT22;6666;51.626;7.530;2022-11-20T02:19:18;-1.70;99.90
13203;DHT22;6666;51.626;7.530;2022-11-20T02:21:56;-1.70;99.90
13203;DHT22;6666;51.626;7.530;2022-11-20T02:24:29;-1.60;99.90
13203;DHT22;6666;51.626;7.530;2022-11-20T02:26:59;-1.60;99.90
13203;DHT22;6666;51.626;7.530;2022-11-20T02:29:33;-1.60;99.90
13203;DHT22;6666;51.626;7.530;2022-11-20T02:32:04;-1.60;99.90
13203;DHT22;6666;51.626;7.530;2022-11-20T02:34:32;-1.60;99.90
13203;DHT22;6666;51.626;7.530;2022-11-20T02:37:01;-1.60;99.90
13203;DHT22;6666;51.626;7.530;2022-11-20T02:39:31;-1.50;99.90
13203;DHT22;6666;51.626;7.530;2022-11-20T02:42:01;-1.40;99.90
13203;DHT22;6666;51.626;7.530;2022-11-20T02:44:29;-1.40;99.90
13203;DHT22;6666;51.626;7.530;2022-11-20T02:46:58;-1.40;99.90
13203;DHT22;6666;51.626;7.530;2022-11-20T02:49:26;-1.30;99.90
13203;DHT22;6666;51.626;7.530;2022-11-20T02:51:54;-1.30;99.90
13203;DHT22;6666;51.626;7.530;2022-11-20T02:54:23;-1.20;99.90
13203;DHT22;6666;51.626;7.530;2022-11-20T02:56:52;-1.40;99.90
13203;DHT22;6666;51.626;7.530;2022-11-20T02:59:21;-1.40;99.90
13203;DHT22;6666;51.626;7.530;2022-11-20T03:01:49;-1.30;99.90
13203;DHT22;6666;51.626;7.530;2022-11-20T03:04:18;-1.30;99.90
13203;DHT22;6666;51.626;7.530;2022-11-20T03:06:46;-1.30;99.90
13203;DHT22;6666;51.626;7.530;2022-11-20T03:09:14;-1.20;99.90
13203;DHT22;6666;51.626;7.530;2022-11-20T03:11:43;-1.30;99.90
13203;DHT22;6666;51.626;7.530;2022-11-20T03:14:12;-1.50;99.90
13203;DHT22;6666;51.626;7.530;2022-11-20T03:16:41;-1.50;99.90
13203;DHT22;6666;51.626;7.530;2022-11-20T03:19:09;-1.40;99.90
13203;DHT22;6666;51.626;7.530;2022-11-20T03:21:37;-1.30;99.90
13203;DHT22;6666;51.626;7.530;2022-11-20T03:24:06;-1.30;99.90
13203;DHT22;6666;51.626;7.530;2022-11-20T03:26:34;-1.30;99.90
13203;DHT22;6666;51.626;7.530;2022-11-20T03:29:04;-1.20;99.90
13203;DHT22;6666;51.626;7.530;2022-11-20T03:31:36;-1.20;99.90
13203;DHT22;6666;51.626;7.530;2022-11-20T03:34:04;-1.10;99.90
13203;DHT22;6666;51.626;7.530;2022-11-20T03:36:33;-1.10;99.90
13203;DHT22;6666;51.626;7.530;2022-11-20T03:39:02;-1.10;99.90
13203;DHT22;6666;51.626;7.530;2022-11-20T03:41:34;-1.00;99.90
13203;DHT22;6666;51.626;7.530;2022-11-20T03:44:05;-1.00;99.90
13203;DHT22;6666;51.626;7.530;2022-11-20T03:46:35;-0.90;99.90
13203;DHT22;6666;51.626;7.530;2022-11-20T03:49:04;-1.00;99.90
13203;DHT22;6666;51.626;7.530;2022-11-20T03:51:34;-1.00;99.90
13203;DHT22;6666;51.626;7.530;2022-11-20T03:54:04;-1.00;99.90
13203;DHT22;6666;51.626;7.530;2022-11-20T03:56:34;-0.90;99.90
13203;DHT22;6666;51.626;7.530;2022-11-20T03:59:04;-1.00;99.90
13203;DHT22;6666;51.626;7.530;2022-11-20T04:01:35;-1.10;99.90
13203;DHT22;6666;51.626;7.530;2022-11-20T04:04:04;-1.00;99.90
13203;DHT22;6666;51.626;7.530;2022-11-20T04:06:34;-0.90;99.90
13203;DHT22;6666;51.626;7.530;2022-11-20T04:09:04;-0.80;99.90
13203;DHT22;6666;51.626;7.530;2022-11-20T04:11:34;-0.90;99.90
13203;DHT22;6666;51.626;7.530;2022-11-20T04:14:05;-0.90;99.90
13203;DHT22;6666;51.626;7.530;2022-11-20T04:16:35;-1.00;99.90
13203;DHT22;6666;51.626;7.530;2022-11-20T04:19:06;-1.00;99.90
13203;DHT22;6666;51.626;7.530;2022-11-20T04:21:34;-1.00;99.90
13203;DHT22;6666;51.626;7.530;2022-11-20T04:24:03;-1.10;99.90
13203;DHT22;6666;51.626;7.530;2022-11-20T04:26:31;-1.00;99.90
13203;DHT22;6666;51.626;7.530;2022-11-20T04:29:00;-1.10;99.90
13203;DHT22;6666;51.626;7.530;2022-11-20T04:31:31;-1.20;99.90
13203;DHT22;6666;51.626;7.530;2022-11-20T04:34:02;-1.20;99.90
13203;DHT22;6666;51.626;7.530;2022-11-20T04:36:31;-1.30;99.90
13203;DHT22;6666;51.626;7.530;2022-11-20T04:39:02;-1.30;99.90
13203;DHT22;6666;51.626;7.530;2022-11-20T04:41:32;-1.30;99.90
13203;DHT22;6666;51.626;7.530;2022-11-20T04:44:02;-1.30;99.90
13203;DHT22;6666;51.626;7.530;2022-11-20T04:46:32;-1.30;99.90
13203;DHT22;6666;51.626;7.530;2022-11-20T04:49:02;-1.30;99.90
13203;DHT22;6666;51.626;7.530;2022-11-20T04:51:31;-1.40;99.90
13203;DHT22;6666;51.626;7.530;2022-11-20T04:53:59;-1.40;99.90
13203;DHT22;6666;51.626;7.530;2022-11-20T04:56:27;-1.40;99.90
13203;DHT22;6666;51.626;7.530;2022-11-20T04:58:59;-1.50;99.90
13203;DHT22;6666;51.626;7.530;2022-11-20T05:01:28;-1.50;99.90
13203;DHT22;6666;51.626;7.530;2022-11-20T05:03:56;-1.50;99.90
13203;DHT22;6666;51.626;7.530;2022-11-20T05:06:26;-1.50;99.90
13203;DHT22;6666;51.626;7.530;2022-11-20T05:08:54;-1.60;99.90
13203;DHT22;6666;51.626;7.530;2022-11-20T05:11:22;-1.60;99.90
13203;DHT22;6666;51.626;7.530;2022-11-20T05:13:51;-1.50;99.90
13203;DHT22;6666;51.626;7.530;2022-11-20T05:16:21;-1.60;99.90
13203;DHT22;6666;51.626;7.530;2022-11-20T05:18:50;-1.60;99.90
13203;DHT22;6666;51.626;7.530;2022-11-20T05:21:19;-1.60;99.90
13203;DHT22;6666;51.626;7.530;2022-11-20T05:23:49;-1.60;99.90
13203;DHT22;6666;51.626;7.530;2022-11-20T05:26:18;-1.50;99.90
13203;DHT22;6666;51.626;7.530;2022-11-20T05:28:48;-1.50;99.90
13203;DHT22;6666;51.626;7.530;2022-11-20T05:31:19;-1.50;99.90
13203;DHT22;6666;51.626;7.530;2022-11-20T05:33:54;-1.50;99.90
13203;DHT22;6666;51.626;7.530;2022-11-20T05:36:23;-1.50;99.90
13203;DHT22;6666;51.626;7.530;2022-11-20T05:38:53;-1.40;99.90
13203;DHT22;6666;51.626;7.530;2022-11-20T05:41:27;-1.40;99.90
13203;DHT22;6666;51.626;7.530;2022-11-20T05:43:56;-1.40;99.90
13203;DHT22;6666;51.626;7.530;2022-11-20T05:46:25;-1.40;99.90
13203;DHT22;6666;51.626;7.530;2022-11-20T05:48:56;-1.30;99.90
13203;DHT22;6666;51.626;7.530;2022-11-20T05:51:25;-1.30;99.90
13203;DHT22;6666;51.626;7.530;2022-11-20T05:53:56;-1.30;99.90
13203;DHT22;6666;51.626;7.530;2022-11-20T05:56:25;-1.30;99.90
13203;DHT22;6666;51.626;7.530;2022-11-20T05:58:53;-1.30;99.90
13203;DHT22;6666;51.626;7.530;2022-11-20T06:01:22;-1.30;99.90
13203;DHT22;6666;51.626;7.530;2022-11-20T06:03:52;-1.30;99.90
13203;DHT22;6666;51.626;7.530;2022-11-20T06:06:21;-1.40;99.90
13203;DHT22;6666;51.626;7.530;2022-11-20T06:08:50;-1.40;99.90
13203;DHT22;6666;51.626;7.530;2022-11-20T06:11:19;-1.40;99.90
13203;DHT22;6666;51.626;7.530;2022-11-20T06:13:48;-1.40;99.90
13203;DHT22;6666;51.626;7.530;2022-11-20T06:16:18;-1.50;99.90
13203;DHT22;6666;51.626;7.530;2022-11-20T06:18:48;-1.50;99.90
13203;DHT22;6666;51.626;7.530;2022-11-20T06:21:18;-1.60;99.90
13203;DHT22;6666;51.626;7.530;2022-11-20T06:23:48;-1.70;99.90
13203;DHT22;6666;51.626;7.530;2022-11-20T06:26:19;-1.80;99.90
13203;DHT22;6666;51.626;7.530;2022-11-20T06:28:48;-1.80;99.90
13203;DHT22;6666;51.626;7.530;2022-11-20T06:31:18;-1.80;99.90
13203;DHT22;6666;51.626;7.530;2022-11-20T06:33:47;-1.70;99.90
13203;DHT22;6666;51.626;7.530;2022-11-20T06:36:19;-1.70;99.90
13203;DHT22;6666;51.626;7.530;2022-11-20T06:38:47;-1.70;99.90
13203;DHT22;6666;51.626;7.530;2022-11-20T06:41:20;-1.70;99.90
13203;DHT22;6666;51.626;7.530;2022-11-20T06:43:48;-1.70;99.90
13203;DHT22;6666;51.626;7.530;2022-11-20T06:46:18;-1.60;99.90
13203;DHT22;6666;51.626;7.530;2022-11-20T06:48:47;-1.50;99.90
13203;DHT22;6666;51.626;7.530;2022-11-20T06:51:15;-1.40;99.90
13203;DHT22;6666;51.626;7.530;2022-11-20T06:53:44;-1.40;99.90
13203;DHT22;6666;51.626;7.530;2022-11-20T06:56:12;-1.40;99.90
13203;DHT22;6666;51.626;7.530;2022-11-20T06:58:42;-1.30;99.90
13203;DHT22;6666;51.626;7.530;2022-11-20T07:01:13;-1.30;99.90
13203;DHT22;6666;51.626;7.530;2022-11-20T07:03:42;-1.30;99.90
13203;DHT22;6666;51.626;7.530;2022-11-20T07:06:11;-1.30;99.90
13203;DHT22;6666;51.626;7.530;2022-11-20T07:08:40;-1.30;99.90
13203;DHT22;6666;51.626;7.530;2022-11-20T07:11:11;-1.40;99.90
13203;DHT22;6666;51.626;7.530;2022-11-20T07:13:39;-1.30;99.90
13203;DHT22;6666;51.626;7.530;2022-11-20T07:16:09;-1.20;99.90
13203;DHT22;6666;51.626;7.530;2022-11-20T07:18:37;-1.20;99.90
13203;DHT22;6666;51.626;7.530;2022-11-20T07:21:07;-1.30;99.90
13203;DHT22;6666;51.626;7.530;2022-11-20T07:23:36;-1.40;99.90
13203;DHT22;6666;51.626;7.530;2022-11-20T07:26:05;-1.40;99.90
13203;DHT22;6666;51.626;7.530;2022-11-20T07:28:34;-1.40;99.90
13203;DHT22;6666;51.626;7.530;2022-11-20T07:31:03;-1.40;99.90
13203;DHT22;6666;51.626;7.530;2022-11-20T07:33:33;-1.40;99.90
13203;DHT22;6666;51.626;7.530;2022-11-20T07:36:01;-1.40;99.90
13203;DHT22;6666;51.626;7.530;2022-11-20T07:38:30;-1.50;99.90
13203;DHT22;6666;51.626;7.530;2022-11-20T07:40:58;-1.50;99.90
13203;DHT22;6666;51.626;7.530;2022-11-20T07:43:28;-1.60;99.90
13203;DHT22;6666;51.626;7.530;2022-11-20T07:45:57;-1.60;99.90
13203;DHT22;6666;51.626;7.530;2022-11-20T07:48:26;-1.50;99.90
13203;DHT22;6666;51.626;7.530;2022-11-20T07:50:56;-1.50;99.90
13203;DHT22;6666;51.626;7.530;2022-11-20T07:53:24;-1.50;99.90
13203;DHT22;6666;51.626;7.530;2022-11-20T07:55:53;-1.50;99.90
13203;DHT22;6666;51.626;7.530;2022-11-20T07:58:21;-1.50;99.90
13203;DHT22;6666;51.626;7.530;2022-11-20T08:00:50;-1.50;99.90
13203;DHT22;6666;51.626;7.530;2022-11-20T08:03:18;-1.50;99.90
13203;DHT22;6666;51.626;7.530;2022-11-20T08:05:51;-1.50;99.90
13203;DHT22;6666;51.626;7.530;2022-11-20T08:08:20;-1.40;99.90
13203;DHT22;6666;51.626;7.530;2022-11-20T08:10:49;-1.30;99.90
13203;DHT22;6666;51.626;7.530;2022-11-20T08:13:17;-1.10;99.90
13203;DHT22;6666;51.626;7.530;2022-11-20T08:16:03;-1.10;99.90
13203;DHT22;6666;51.626;7.530;2022-11-20T08:18:32;-1.10;99.90
13203;DHT22;6666;51.626;7.530;2022-11-20T08:21:02;-1.00;99.90
13203;DHT22;6666;51.626;7.530;2022-11-20T08:23:32;-1.00;99.90
13203;DHT22;6666;51.626;7.530;2022-11-20T08:26:01;-0.90;99.90
13203;DHT22;6666;51.626;7.530;2022-11-20T08:28:29;-0.90;99.90
13203;DHT22;6666;51.626;7.530;2022-11-20T08:31:01;-0.80;99.90
13203;DHT22;6666;51.626;7.530;2022-11-20T08:33:30;-0.80;99.90
13203;DHT22;6666;51.626;7.530;2022-11-20T08:36:00;-0.80;99.90
13203;DHT22;6666;51.626;7.530;2022-11-20T08:38:29;-0.70;99.90
13203;DHT22;6666;51.626;7.530;2022-11-20T08:40:59;-0.70;99.90
13203;DHT22;6666;51.626;7.530;2022-11-20T08:43:45;-0.70;99.90
13203;DHT22;6666;51.626;7.530;2022-11-20T08:46:14;-0.50;99.90
13203;DHT22;6666;51.626;7.530;2022-11-20T08:48:42;-0.50;99.90
13203;DHT22;6666;51.626;7.530;2022-11-20T08:51:11;-0.50;99.90
13203;DHT22;6666;51.626;7.530;2022-11-20T08:53:40;-0.50;99.90
13203;DHT22;6666;51.626;7.530;2022-11-20T08:56:10;-0.40;99.90
13203;DHT22;6666;51.626;7.530;2022-11-20T08:58:38;-0.30;99.90
13203;DHT22;6666;51.626;7.530;2022-11-20T09:01:27;-0.20;99.90
13203;DHT22;6666;51.626;7.530;2022-11-20T09:03:56;-0.10;99.90
13203;DHT22;6666;51.626;7.530;2022-11-20T09:06:26;0.00;99.90
13203;DHT22;6666;51.626;7.530;2022-11-20T09:08:54;0.00;99.90
13203;DHT22;6666;51.626;7.530;2022-11-20T09:11:32;0.00;99.90
13203;DHT22;6666;51.626;7.530;2022-11-20T09:14:00;0.10;99.90
13203;DHT22;6666;51.626;7.530;2022-11-20T09:16:29;0.10;99.90
13203;DHT22;6666;51.626;7.530;2022-11-20T09:18:57;0.30;99.90
13203;DHT22;6666;51.626;7.530;2022-11-20T09:21:46;0.40;99.90
13203;DHT22;6666;51.626;7.530;2022-11-20T09:24:14;0.40;99.90
13203;DHT22;6666;51.626;7.530;2022-11-20T09:26:43;0.50;99.90
13203;DHT22;6666;51.626;7.530;2022-11-20T09:29:12;0.60;99.90
13203;DHT22;6666;51.626;7.530;2022-11-20T09:31:40;0.70;99.90
13203;DHT22;6666;51.626;7.530;2022-11-20T09:34:09;0.70;99.90
13203;DHT22;6666;51.626;7.530;2022-11-20T09:36:37;0.80;99.90
13203;DHT22;6666;51.626;7.530;2022-11-20T09:39:06;0.80;99.90
13203;DHT22;6666;51.626;7.530;2022-11-20T09:42:03;0.90;99.90
13203;DHT22;6666;51.626;7.530;2022-11-20T09:44:46;0.90;99.90
13203;DHT22;6666;51.626;7.530;2022-11-20T09:47:27;0.90;99.90
13203;DHT22;6666;51.626;7.530;2022-11-20T09:50:12;1.10;99.90
13203;DHT22;6666;51.626;7.530;2022-11-20T09:52:49;1.30;99.90
13203;DHT22;6666;51.626;7.530;2022-11-20T09:55:22;1.40;99.90
13203;DHT22;6666;51.626;7.530;2022-11-20T09:57:52;1.40;99.90
13203;DHT22;6666;51.626;7.530;2022-11-20T10:00:20;1.60;99.90
13203;DHT22;6666;51.626;7.530;2022-11-20T10:02:55;1.60;99.90
13203;DHT22;6666;51.626;7.530;2022-11-20T10:05:27;1.60;99.90
13203;DHT22;6666;51.626;7.530;2022-11-20T10:08:04;1.80;99.90
13203;DHT22;6666;51.626;7.530;2022-11-20T10:10:41;1.90;99.90
13203;DHT22;6666;51.626;7.530;2022-11-20T10:13:31;2.00;99.90
13203;DHT22;6666;51.626;7.530;2022-11-20T10:16:12;1.90;99.90
13203;DHT22;6666;51.626;7.530;2022-11-20T10:18:55;1.90;99.90
13203;DHT22;6666;51.626;7.530;2022-11-20T10:21:30;2.00;99.90
13203;DHT22;6666;51.626;7.530;2022-11-20T10:27:00;2.00;99.90
13203;DHT22;6666;51.626;7.530;2022-11-20T10:29:34;2.10;99.90
13203;DHT22;6666;51.626;7.530;2022-11-20T10:32:09;2.10;99.90
13203;DHT22;6666;51.626;7.530;2022-11-20T10:34:46;2.10;99.90
13203;DHT22;6666;51.626;7.530;2022-11-20T10:37:22;2.20;99.90
13203;DHT22;6666;51.626;7.530;2022-11-20T10:39:53;2.20;99.90
13203;DHT22;6666;51.626;7.530;2022-11-20T10:42:29;2.20;99.90
13203;DHT22;6666;51.626;7.530;2022-11-20T10:45:11;2.30;99.90
13203;DHT22;6666;51.626;7.530;2022-11-20T10:47:41;2.30;99.90
13203;DHT22;6666;51.626;7.530;2022-11-20T10:50:11;2.40;99.90
13203;DHT22;6666;51.626;7.530;2022-11-20T10:52:53;2.50;99.90
13203;DHT22;6666;51.626;7.530;2022-11-20T10:55:29;2.40;99.90
13203;DHT22;6666;51.626;7.530;2022-11-20T10:58:04;2.40;99.90
13203;DHT22;6666;51.626;7.530;2022-11-20T11:00:37;2.50;99.90
13203;DHT22;6666;51.626;7.530;2022-11-20T11:03:24;2.50;99.90
13203;DHT22;6666;51.626;7.530;2022-11-20T11:05:59;2.60;99.90
13203;DHT22;6666;51.626;7.530;2022-11-20T11:08:34;2.60;99.90
13203;DHT22;6666;51.626;7.530;2022-11-20T11:11:15;2.70;99.90
13203;DHT22;6666;51.626;7.530;2022-11-20T11:13:46;2.80;99.90
13203;DHT22;6666;51.626;7.530;2022-11-20T11:16:22;2.90;99.90
13203;DHT22;6666;51.626;7.530;2022-11-20T11:18:51;2.90;99.90
13203;DHT22;6666;51.626;7.530;2022-11-20T11:21:23;2.90;99.90
13203;DHT22;6666;51.626;7.530;2022-11-20T11:24:00;2.90;99.90
13203;DHT22;6666;51.626;7.530;2022-11-20T11:26:54;2.90;99.90
13203;DHT22;6666;51.626;7.530;2022-11-20T11:29:24;2.90;99.90
13203;DHT22;6666;51.626;7.530;2022-11-20T11:32:05;2.90;99.90
13203;DHT22;6666;51.626;7.530;2022-11-20T11:34:34;2.90;99.90
13203;DHT22;6666;51.626;7.530;2022-11-20T11:37:03;2.80;99.90
13203;DHT22;6666;51.626;7.530;2022-11-20T11:39:33;2.80;99.90
13203;DHT22;6666;51.626;7.530;2022-11-20T11:42:01;2.90;99.90
13203;DHT22;6666;51.626;7.530;2022-11-20T11:44:31;2.90;99.90
13203;DHT22;6666;51.626;7.530;2022-11-20T11:47:24;3.00;99.90
13203;DHT22;6666;51.626;7.530;2022-11-20T11:50:02;3.00;99.90
13203;DHT22;6666;51.626;7.530;2022-11-20T11:52:31;3.10;99.90
13203;DHT22;6666;51.626;7.530;2022-11-20T11:55:03;3.20;99.90
13203;DHT22;6666;51.626;7.530;2022-11-20T11:57:43;3.20;99.90
13203;DHT22;6666;51.626;7.530;2022-11-20T12:00:16;3.30;99.90
13203;DHT22;6666;51.626;7.530;2022-11-20T12:02:57;3.30;99.90
13203;DHT22;6666;51.626;7.530;2022-11-20T12:05:30;3.30;99.90
13203;DHT22;6666;51.626;7.530;2022-11-20T12:08:04;3.40;99.90
13203;DHT22;6666;51.626;7.530;2022-11-20T12:10:43;3.40;99.90
13203;DHT22;6666;51.626;7.530;2022-11-20T12:13:22;3.50;99.90
13203;DHT22;6666;51.626;7.530;2022-11-20T12:15:53;3.60;99.90
13203;DHT22;6666;51.626;7.530;2022-11-20T12:18:23;3.70;99.90
13203;DHT22;6666;51.626;7.530;2022-11-20T12:21:02;3.70;99.90
13203;DHT22;6666;51.626;7.530;2022-11-20T12:23:39;3.70;99.90
13203;DHT22;6666;51.626;7.530;2022-11-20T12:26:18;3.70;99.90
13203;DHT22;6666;51.626;7.530;2022-11-20T12:28:56;3.80;99.90
13203;DHT22;6666;51.626;7.530;2022-11-20T12:31:38;3.80;99.90
13203;DHT22;6666;51.626;7.530;2022-11-20T12:34:28;3.80;99.90
13203;DHT22;6666;51.626;7.530;2022-11-20T12:37:06;3.80;99.90
13203;DHT22;6666;51.626;7.530;2022-11-20T12:39:41;3.90;99.90
13203;DHT22;6666;51.626;7.530;2022-11-20T12:54:52;3.90;99.90
13203;DHT22;6666;51.626;7.530;2022-11-20T12:57:32;3.90;99.90
13203;DHT22;6666;51.626;7.530;2022-11-20T13:00:11;4.10;99.90
13203;DHT22;6666;51.626;7.530;2022-11-20T13:05:55;3.90;99.90
13203;DHT22;6666;51.626;7.530;2022-11-20T13:08:28;3.90;99.90
13203;DHT22;6666;51.626;7.530;2022-11-20T13:11:01;3.90;99.90
13203;DHT22;6666;51.626;7.530;2022-11-20T13:13:40;3.90;99.90
13203;DHT22;6666;51.626;7.530;2022-11-20T13:16:16;4.00;99.90
13203;DHT22;6666;51.626;7.530;2022-11-20T13:18:45;4.00;99.90
13203;DHT22;6666;51.626;7.530;2022-11-20T13:21:36;3.90;99.90
13203;DHT22;6666;51.626;7.530;2022-11-20T13:24:07;4.00;99.90
13203;DHT22;6666;51.626;7.530;2022-11-20T13:26:35;3.90;99.90
13203;DHT22;6666;51.626;7.530;2022-11-20T13:29:09;3.80;99.90
13203;DHT22;6666;51.626;7.530;2022-11-20T13:31:43;3.70;99.90
13203;DHT22;6666;51.626;7.530;2022-11-20T13:34:14;3.70;99.90
13203;DHT22;6666;51.626;7.530;2022-11-20T13:36:52;3.70;99.90
13203;DHT22;6666;51.626;7.530;2022-11-20T13:39:29;3.70;99.90
13203;DHT22;6666;51.626;7.530;2022-11-20T13:41:59;3.70;99.90
13203;DHT22;6666;51.626;7.530;2022-11-20T13:44:33;3.60;99.90
13203;DHT22;6666;51.626;7.530;2022-11-20T13:47:16;3.60;99.90
13203;DHT22;6666;51.626;7.530;2022-11-20T13:49:48;3.60;99.90
13203;DHT22;6666;51.626;7.530;2022-11-20T13:52:33;3.60;99.90
13203;DHT22;6666;51.626;7.530;2022-11-20T13:55:14;3.60;99.90
13203;DHT22;6666;51.626;7.530;2022-11-20T13:58:20;3.60;99.90
13203;DHT22;6666;51.626;7.530;2022-11-20T14:00:57;3.60;99.90
13203;DHT22;6666;51.626;7.530;2022-11-20T14:03:30;3.60;99.90
13203;DHT22;6666;51.626;7.530;2022-11-20T14:06:25;3.60;99.90
13203;DHT22;6666;51.626;7.530;2022-11-20T14:08:54;3.70;99.90
13203;DHT22;6666;51.626;7.530;2022-11-20T14:11:25;3.70;99.90
13203;DHT22;6666;51.626;7.530;2022-11-20T14:13:59;3.70;99.90
13203;DHT22;6666;51.626;7.530;2022-11-20T14:16:30;3.70;99.90
13203;DHT22;6666;51.626;7.530;2022-11-20T14:19:23;3.70;99.90
13203;DHT22;6666;51.626;7.530;2022-11-20T14:21:55;3.70;99.90
13203;DHT22;6666;51.626;7.530;2022-11-20T14:24:34;3.70;99.90
13203;DHT22;6666;51.626;7.530;2022-11-20T14:27:04;3.60;99.90
13203;DHT22;6666;51.626;7.530;2022-11-20T14:29:35;3.60;99.90
13203;DHT22;6666;51.626;7.530;2022-11-20T14:32:04;3.60;99.90
13203;DHT22;6666;51.626;7.530;2022-11-20T14:34:38;3.60;99.90
13203;DHT22;6666;51.626;7.530;2022-11-20T14:37:12;3.40;99.90
13203;DHT22;6666;51.626;7.530;2022-11-20T14:39:49;3.50;99.90
13203;DHT22;6666;51.626;7.530;2022-11-20T14:42:22;3.50;99.90
13203;DHT22;6666;51.626;7.530;2022-11-20T14:44:54;3.40;99.90
13203;DHT22;6666;51.626;7.530;2022-11-20T14:47:25;3.40;99.90
13203;DHT22;6666;51.626;7.530;2022-11-20T14:49:55;3.30;99.90
13203;DHT22;6666;51.626;7.530;2022-11-20T14:52:25;3.30;99.90
13203;DHT22;6666;51.626;7.530;2022-11-20T14:54:54;3.30;99.90
13203;DHT22;6666;51.626;7.530;2022-11-20T14:57:26;3.40;99.90
13203;DHT22;6666;51.626;7.530;2022-11-20T15:00:08;3.30;99.90
13203;DHT22;6666;51.626;7.530;2022-11-20T15:02:46;3.30;99.90
13203;DHT22;6666;51.626;7.530;2022-11-20T15:05:16;3.30;99.90
13203;DHT22;6666;51.626;7.530;2022-11-20T15:07:47;3.30;99.90
13203;DHT22;6666;51.626;7.530;2022-11-20T15:10:21;3.30;99.90
13203;DHT22;6666;51.626;7.530;2022-11-20T15:12:53;3.20;99.90
13203;DHT22;6666;51.626;7.530;2022-11-20T15:15:25;3.20;99.90
13203;DHT22;6666;51.626;7.530;2022-11-20T15:17:53;3.20;99.90
13203;DHT22;6666;51.626;7.530;2022-11-20T15:20:25;3.20;99.90
13203;DHT22;6666;51.626;7.530;2022-11-20T15:22:54;3.20;99.90
13203;DHT22;6666;51.626;7.530;2022-11-20T15:25:22;3.10;99.90
13203;DHT22;6666;51.626;7.530;2022-11-20T15:27:55;3.20;99.90
13203;DHT22;6666;51.626;7.530;2022-11-20T15:30:23;3.10;99.90
13203;DHT22;6666;51.626;7.530;2022-11-20T15:32:52;3.10;99.90
13203;DHT22;6666;51.626;7.530;2022-11-20T15:35:20;3.10;99.90
13203;DHT22;6666;51.626;7.530;2022-11-20T15:37:48;3.10;99.90
13203;DHT22;6666;51.626;7.530;2022-11-20T15:40:16;3.10;99.90
13203;DHT22;6666;51.626;7.530;2022-11-20T15:42:44;3.00;99.90
13203;DHT22;6666;51.626;7.530;2022-11-20T15:45:30;3.00;99.90
13203;DHT22;6666;51.626;7.530;2022-11-20T15:47:59;3.00;99.90
13203;DHT22;6666;51.626;7.530;2022-11-20T15:50:34;3.00;99.90
13203;DHT22;6666;51.626;7.530;2022-11-20T15:53:04;3.10;99.90
13203;DHT22;6666;51.626;7.530;2022-11-20T15:55:32;3.10;99.90
13203;DHT22;6666;51.626;7.530;2022-11-20T15:58:01;3.20;99.90
13203;DHT22;6666;51.626;7.530;2022-11-20T16:00:30;3.10;99.90
13203;DHT22;6666;51.626;7.530;2022-11-20T16:02:58;3.10;99.90
13203;DHT22;6666;51.626;7.530;2022-11-20T16:05:28;3.10;99.90
13203;DHT22;6666;51.626;7.530;2022-11-20T16:07:57;3.10;99.90
13203;DHT22;6666;51.626;7.530;2022-11-20T16:10:25;3.20;99.90
13203;DHT22;6666;51.626;7.530;2022-11-20T16:12:53;3.20;99.90
13203;DHT22;6666;51.626;7.530;2022-11-20T16:15:41;3.10;99.90
13203;DHT22;6666;51.626;7.530;2022-11-20T16:18:17;3.10;99.90
13203;DHT22;6666;51.626;7.530;2022-11-20T16:20:47;3.10;99.90
13203;DHT22;6666;51.626;7.530;2022-11-20T16:23:16;3.00;99.90
13203;DHT22;6666;51.626;7.530;2022-11-20T16:25:45;3.00;99.90
13203;DHT22;6666;51.626;7.530;2022-11-20T16:28:14;3.00;99.90
13203;DHT22;6666;51.626;7.530;2022-11-20T16:30:46;2.90;99.90
13203;DHT22;6666;51.626;7.530;2022-11-20T16:33:16;2.90;99.90
13203;DHT22;6666;51.626;7.530;2022-11-20T16:35:44;2.90;99.90
13203;DHT22;6666;51.626;7.530;2022-11-20T16:38:13;2.90;99.90
13203;DHT22;6666;51.626;7.530;2022-11-20T16:40:41;2.80;99.90